Time;durP1;ratioP1;P1;durP2;ratioP2;P2;SDS_P1;SDS_P2;PMS_P1;PMS_P2;Temp;Humidity;BMP_temperature;BMP_pressure;BME280_temperature;BME280_humidity;BME280_pressure;Samples;Min_cycle;Max_cycle;Signal;HPM_P1;HPM_P2
2024/03/21 00:00:50;;;;;;;;;;;14.10;99.90;;;;;;5008944;28;19921;-85
2024/03/21 00:03:15;;;;;;;;;;;14.00;99.90;;;;;;5006658;28;19920;-85
2024/03/21 00:05:41;;;;;;;;;;;14.00;99.90;;;;;;5009355;28;20383;-85
2024/03/21 00:08:06;;;;;;;;;;;13.90;99.90;;;;;;5004957;28;20453;-86
2024/03/21 00:10:32;;;;;;;;;;;13.90;99.90;;;;;;5006686;28;20352;-85
2024/03/21 00:12:57;;;;;;;;;;;13.80;99.90;;;;;;5010016;28;19971;-86
2024/03/21 00:15:23;;;;;;;;;;;13.70;1.00;;;;;;5009376;28;19917;-85
2024/03/21 00:17:49;;;;;;;;;;;13.70;1.00;;;;;;5012383;28;20383;-85
2024/03/21 00:20:15;;;;;;;;;;;13.60;45.60;;;;;;5006158;28;19957;-85
2024/03/21 00:22:41;;;;;;;;;;;13.60;99.90;;;;;;5004135;28;19917;-85
2024/03/21 00:25:08;;;;;;;;;;;13.60;99.90;;;;;;5008832;28;19957;-86
2024/03/21 00:27:34;;;;;;;;;;;13.60;99.90;;;;;;5010779;28;19920;-85
2024/03/21 00:30:00;;;;;;;;;;;13.60;1.00;;;;;;5012217;28;19920;-85
2024/03/21 00:32:26;;;;;;;;;;;13.40;1.00;;;;;;5013387;28;19917;-85
2024/03/21 00:34:52;;;;;;;;;;;13.40;99.90;;;;;;5010530;28;19968;-85
2024/03/21 00:37:17;;;;;;;;;;;13.40;1.00;;;;;;5012326;28;19971;-86
2024/03/21 00:39:45;;;;;;;;;;;13.30;1.00;;;;;;5013823;28;20048;-86
2024/03/21 00:42:11;;;;;;;;;;;13.30;99.90;;;;;;5011531;28;19913;-86
2024/03/21 00:44:36;;;;;;;;;;;13.20;58.30;;;;;;5011877;28;20139;-84
2024/03/21 00:47:02;;;;;;;;;;;13.30;99.90;;;;;;5012093;28;20012;-86
2024/03/21 00:49:28;;;;;;;;;;;13.20;85.80;;;;;;5011894;28;19923;-85
2024/03/21 00:51:54;;;;;;;;;;;13.10;1.00;;;;;;5012465;28;20399;-85
2024/03/21 00:54:19;;;;;;;;;;;13.10;1.00;;;;;;5008161;28;19918;-85
2024/03/21 00:56:45;;;;;;;;;;;13.10;1.00;;;;;;5010695;28;19914;-85
2024/03/21 00:59:10;;;;;;;;;;;13.00;99.90;;;;;;5010660;28;20004;-84
2024/03/21 01:01:36;;;;;;;;;;;13.00;99.90;;;;;;5012182;28;19913;-84
2024/03/21 01:04:01;;;;;;;;;;;13.00;99.90;;;;;;5011589;28;20376;-85
2024/03/21 01:06:27;;;;;;;;;;;13.00;99.90;;;;;;5011743;28;19918;-85
2024/03/21 01:08:52;;;;;;;;;;;13.00;1.00;;;;;;5009247;28;20056;-86
2024/03/21 01:11:18;;;;;;;;;;;12.90;1.00;;;;;;5011720;28;19928;-85
2024/03/21 01:13:43;;;;;;;;;;;12.90;1.00;;;;;;5010481;28;19960;-85
2024/03/21 01:16:10;;;;;;;;;;;12.90;1.00;;;;;;5012067;28;20310;-85
2024/03/21 01:18:35;;;;;;;;;;;12.90;1.00;;;;;;5011983;28;20302;-84
2024/03/21 01:21:02;;;;;;;;;;;12.80;1.00;;;;;;5009378;28;20004;-85
2024/03/21 01:23:28;;;;;;;;;;;12.80;1.00;;;;;;4999880;28;19939;-85
2024/03/21 01:25:54;;;;;;;;;;;12.70;1.00;;;;;;5005098;28;19920;-85
2024/03/21 01:28:19;;;;;;;;;;;12.70;1.00;;;;;;5011086;28;19917;-85
2024/03/21 01:30:45;;;;;;;;;;;12.60;13.00;;;;;;5009805;28;19914;-86
2024/03/21 01:33:10;;;;;;;;;;;12.60;14.30;;;;;;5012119;28;19917;-85
2024/03/21 01:35:36;;;;;;;;;;;12.60;1.00;;;;;;5007855;28;19918;-85
2024/03/21 01:38:04;;;;;;;;;;;12.60;26.10;;;;;;5011433;28;19960;-85
2024/03/21 01:40:30;;;;;;;;;;;12.50;99.90;;;;;;5011973;28;19913;-86
2024/03/21 01:42:55;;;;;;;;;;;12.50;99.90;;;;;;5010936;28;20419;-85
2024/03/21 01:45:21;;;;;;;;;;;12.40;99.90;;;;;;5010123;28;19920;-85
2024/03/21 01:47:46;;;;;;;;;;;12.50;99.90;;;;;;5010578;28;19913;-85
2024/03/21 01:50:12;;;;;;;;;;;12.40;99.90;;;;;;5010239;28;20319;-85
2024/03/21 01:52:39;;;;;;;;;;;12.50;99.90;;;;;;5004901;28;19924;-86
2024/03/21 01:55:04;;;;;;;;;;;12.50;99.90;;;;;;5009195;28;19918;-86
2024/03/21 01:57:31;;;;;;;;;;;12.50;99.90;;;;;;5010121;28;20350;-86
2024/03/21 01:59:58;;;;;;;;;;;12.50;99.90;;;;;;5008494;28;19929;-85
2024/03/21 02:02:24;;;;;;;;;;;12.50;99.90;;;;;;5010565;28;19914;-86
2024/03/21 02:04:50;;;;;;;;;;;12.50;99.90;;;;;;5011142;28;19920;-85
2024/03/21 02:07:18;;;;;;;;;;;12.50;99.90;;;;;;5011844;28;19913;-86
2024/03/21 02:09:49;;;;;;;;;;;12.50;99.90;;;;;;5009989;28;20460;-85
2024/03/21 02:12:35;;;;;;;;;;;12.50;99.90;;;;;;5012353;28;20515;-84
2024/03/21 02:15:00;;;;;;;;;;;12.50;99.90;;;;;;5009592;28;19926;-85
2024/03/21 02:17:26;;;;;;;;;;;12.50;99.90;;;;;;5006898;28;19913;-84
2024/03/21 02:19:51;;;;;;;;;;;12.50;99.90;;;;;;5008105;28;20273;-85
2024/03/21 02:22:35;;;;;;;;;;;12.50;99.90;;;;;;5014822;28;20012;-84
2024/03/21 02:25:11;;;;;;;;;;;12.50;99.90;;;;;;5011185;28;19935;-85
2024/03/21 02:27:37;;;;;;;;;;;12.50;99.90;;;;;;5012119;28;19960;-85
2024/03/21 02:30:03;;;;;;;;;;;12.40;1.00;;;;;;5013271;28;19914;-85
2024/03/21 02:32:28;;;;;;;;;;;12.40;1.00;;;;;;5015169;28;19935;-86
2024/03/21 02:34:54;;;;;;;;;;;12.40;1.00;;;;;;5011640;28;19925;-84
2024/03/21 02:37:19;;;;;;;;;;;12.40;1.00;;;;;;5008488;28;19914;-86
2024/03/21 02:39:50;;;;;;;;;;;12.50;1.00;;;;;;5010654;28;19968;-85
2024/03/21 02:42:20;;;;;;;;;;;12.50;1.00;;;;;;5016067;28;19914;-85
2024/03/21 02:44:46;;;;;;;;;;;12.50;1.00;;;;;;5014173;28;20056;-86
2024/03/21 02:47:12;;;;;;;;;;;12.50;1.00;;;;;;5014371;28;19913;-84
2024/03/21 02:49:37;;;;;;;;;;;12.40;1.00;;;;;;5013528;28;20350;-85
2024/03/21 02:52:03;;;;;;;;;;;12.40;1.00;;;;;;5012318;28;19917;-85
2024/03/21 02:54:31;;;;;;;;;;;12.40;1.00;;;;;;5014569;28;19917;-84
2024/03/21 02:56:57;;;;;;;;;;;12.40;1.00;;;;;;5004557;28;20377;-86
2024/03/21 02:59:23;;;;;;;;;;;12.30;1.00;;;;;;5014647;28;19961;-85
2024/03/21 03:01:48;;;;;;;;;;;12.30;1.00;;;;;;5014249;28;19952;-86
2024/03/21 03:04:14;;;;;;;;;;;12.30;1.00;;;;;;5018328;28;19913;-85
2024/03/21 03:06:39;;;;;;;;;;;12.20;1.00;;;;;;5017328;28;19913;-85
2024/03/21 03:09:05;;;;;;;;;;;12.20;1.00;;;;;;5014558;28;19913;-85
2024/03/21 03:11:30;;;;;;;;;;;12.20;1.00;;;;;;5008657;28;20264;-85
2024/03/21 03:13:56;;;;;;;;;;;12.20;1.00;;;;;;5012238;28;20425;-85
2024/03/21 03:16:22;;;;;;;;;;;12.20;1.00;;;;;;5014903;28;19921;-85
2024/03/21 03:18:47;;;;;;;;;;;12.20;1.00;;;;;;5014413;28;20449;-86
2024/03/21 03:21:13;;;;;;;;;;;12.30;1.00;;;;;;5015298;28;19913;-86
2024/03/21 03:23:38;;;;;;;;;;;12.10;1.00;;;;;;5014319;28;20060;-85
2024/03/21 03:26:04;;;;;;;;;;;12.20;1.00;;;;;;5015217;28;19927;-86
2024/03/21 03:28:29;;;;;;;;;;;12.20;1.00;;;;;;5015201;28;20421;-85
2024/03/21 03:30:55;;;;;;;;;;;12.20;1.00;;;;;;5015281;28;19921;-85
2024/03/21 03:36:04;;;;;;;;;;;12.10;1.00;;;;;;5014187;28;20007;-85
2024/03/21 03:38:30;;;;;;;;;;;12.10;1.00;;;;;;5014182;28;20387;-86
2024/03/21 03:40:55;;;;;;;;;;;12.20;1.00;;;;;;5020938;28;19913;-85
2024/03/21 03:43:21;;;;;;;;;;;12.10;1.00;;;;;;5020254;28;19913;-86
2024/03/21 03:45:46;;;;;;;;;;;12.10;1.00;;;;;;5011599;28;19959;-85
2024/03/21 03:48:12;;;;;;;;;;;12.00;1.00;;;;;;5012863;28;20380;-85
2024/03/21 03:50:37;;;;;;;;;;;12.00;1.00;;;;;;5018778;28;20341;-85
2024/03/21 03:53:03;;;;;;;;;;;12.00;1.00;;;;;;5012696;28;19914;-85
2024/03/21 03:55:28;;;;;;;;;;;12.00;1.00;;;;;;5013286;28;19925;-85
2024/03/21 03:57:54;;;;;;;;;;;12.00;1.00;;;;;;5013808;28;19921;-86
2024/03/21 04:00:20;;;;;;;;;;;12.00;1.00;;;;;;5012274;28;19996;-85
2024/03/21 04:02:46;;;;;;;;;;;11.90;1.00;;;;;;5012533;28;19914;-85
2024/03/21 04:05:14;;;;;;;;;;;12.00;1.00;;;;;;5011622;28;19920;-85
2024/03/21 04:07:40;;;;;;;;;;;12.00;1.00;;;;;;5012314;28;19921;-85
2024/03/21 04:10:06;;;;;;;;;;;12.00;1.00;;;;;;5013737;28;19960;-85
2024/03/21 04:12:31;;;;;;;;;;;12.00;1.00;;;;;;5008733;28;19921;-85
2024/03/21 04:14:57;;;;;;;;;;;12.00;1.00;;;;;;5010229;28;19929;-85
2024/03/21 04:17:22;;;;;;;;;;;12.00;1.00;;;;;;5013717;28;20342;-85
2024/03/21 04:19:48;;;;;;;;;;;12.00;1.00;;;;;;5005995;28;19945;-84
2024/03/21 04:22:13;;;;;;;;;;;12.00;1.00;;;;;;5012067;28;19927;-85
2024/03/21 04:24:41;;;;;;;;;;;12.00;1.00;;;;;;5011981;28;19949;-86
2024/03/21 04:27:07;;;;;;;;;;;12.00;1.00;;;;;;5011110;28;20020;-85
2024/03/21 04:29:32;;;;;;;;;;;12.00;1.00;;;;;;5013322;28;20304;-85
2024/03/21 04:31:58;;;;;;;;;;;12.00;1.00;;;;;;5012881;28;19920;-84
2024/03/21 04:34:24;;;;;;;;;;;12.00;1.00;;;;;;5010278;28;20404;-85
2024/03/21 04:36:50;;;;;;;;;;;12.10;1.00;;;;;;5012884;28;19913;-85
2024/03/21 04:39:15;;;;;;;;;;;12.00;1.00;;;;;;5014065;28;20292;-85
2024/03/21 04:41:41;;;;;;;;;;;12.00;1.00;;;;;;5012032;28;19921;-84
2024/03/21 04:44:06;;;;;;;;;;;12.00;1.00;;;;;;5011288;28;19920;-85
2024/03/21 04:46:32;;;;;;;;;;;12.00;1.00;;;;;;5012006;28;19913;-83
2024/03/21 04:48:57;;;;;;;;;;;12.00;1.00;;;;;;5013087;28;20264;-84
2024/03/21 04:51:23;;;;;;;;;;;11.90;1.00;;;;;;5005806;28;19914;-85
2024/03/21 04:53:48;;;;;;;;;;;11.80;1.00;;;;;;5009722;28;19968;-85
2024/03/21 04:56:14;;;;;;;;;;;11.80;1.00;;;;;;5010732;28;20370;-85
2024/03/21 04:58:39;;;;;;;;;;;11.70;1.00;;;;;;5006547;28;19913;-85
2024/03/21 05:01:07;;;;;;;;;;;11.60;1.00;;;;;;5007628;28;19960;-85
2024/03/21 05:03:33;;;;;;;;;;;11.50;1.00;;;;;;5012081;28;20399;-86
2024/03/21 05:05:58;;;;;;;;;;;11.50;1.00;;;;;;5012598;28;19924;-85
2024/03/21 05:08:24;;;;;;;;;;;11.40;1.00;;;;;;5010973;28;20395;-85
2024/03/21 05:10:50;;;;;;;;;;;11.40;1.00;;;;;;5012889;28;19980;-84
2024/03/21 05:13:15;;;;;;;;;;;11.30;1.00;;;;;;5011475;28;19940;-85
2024/03/21 05:15:50;;;;;;;;;;;11.30;1.00;;;;;;5013438;28;19914;-85
2024/03/21 05:18:16;;;;;;;;;;;11.20;1.00;;;;;;5010488;28;19914;-85
2024/03/21 05:20:41;;;;;;;;;;;11.30;1.00;;;;;;5009851;28;19913;-85
2024/03/21 05:23:07;;;;;;;;;;;11.20;1.00;;;;;;5010917;28;19972;-86
2024/03/21 05:25:35;;;;;;;;;;;11.10;1.00;;;;;;5013509;28;19924;-84
2024/03/21 05:28:01;;;;;;;;;;;11.10;1.00;;;;;;5013815;28;19940;-85
2024/03/21 05:30:27;;;;;;;;;;;10.90;1.00;;;;;;5008321;28;19920;-85
2024/03/21 05:32:52;;;;;;;;;;;10.90;1.20;;;;;;5011138;28;20314;-85
2024/03/21 05:35:17;;;;;;;;;;;11.00;4.80;;;;;;5012256;28;19967;-85
2024/03/21 05:37:43;;;;;;;;;;;11.00;7.30;;;;;;5001034;28;19956;-85
2024/03/21 05:40:09;;;;;;;;;;;10.90;10.90;;;;;;5015630;28;19913;-85
2024/03/21 05:42:35;;;;;;;;;;;10.90;11.20;;;;;;5012960;28;19952;-86
2024/03/21 05:45:00;;;;;;;;;;;10.90;9.60;;;;;;5006136;28;20401;-85
2024/03/21 05:47:26;;;;;;;;;;;10.90;11.60;;;;;;5009808;28;19937;-86
2024/03/21 05:49:51;;;;;;;;;;;10.90;13.50;;;;;;5011717;28;20308;-85
2024/03/21 05:52:17;;;;;;;;;;;10.90;18.70;;;;;;5058764;22;19925;-83
2024/03/21 05:54:48;;;;;;;;;;;10.90;25.40;;;;;;5081879;28;19908;-85
2024/03/21 05:57:13;;;;;;;;;;;10.90;29.50;;;;;;5082824;28;19913;-83
2024/03/21 05:59:39;;;;;;;;;;;11.00;28.90;;;;;;5077707;28;19909;-83
2024/03/21 06:02:04;;;;;;;;;;;11.20;26.60;;;;;;5079353;28;19912;-83
2024/03/21 06:04:29;;;;;;;;;;;11.20;21.20;;;;;;5078986;28;20390;-83
2024/03/21 06:06:55;;;;;;;;;;;11.20;14.00;;;;;;5076741;28;20414;-83
2024/03/21 06:09:22;;;;;;;;;;;11.30;6.60;;;;;;5081201;28;19908;-83
2024/03/21 06:11:49;;;;;;;;;;;11.50;1.00;;;;;;5058111;28;19908;-84
2024/03/21 06:14:14;;;;;;;;;;;11.70;1.00;;;;;;5071162;28;19923;-85
2024/03/21 06:16:40;;;;;;;;;;;12.00;1.00;;;;;;5089498;28;19909;-85
2024/03/21 06:19:05;;;;;;;;;;;12.60;1.00;;;;;;5087553;28;19912;-85
2024/03/21 06:21:31;;;;;;;;;;;12.70;1.00;;;;;;5083347;28;19959;-85
2024/03/21 06:23:56;;;;;;;;;;;12.60;1.00;;;;;;5089616;28;20458;-85
2024/03/21 06:26:22;;;;;;;;;;;12.60;1.00;;;;;;5080683;28;20007;-83
2024/03/21 06:28:47;;;;;;;;;;;13.00;1.00;;;;;;5070910;28;19912;-82
2024/03/21 06:31:13;;;;;;;;;;;13.80;1.00;;;;;;5075041;28;20013;-83
2024/03/21 06:33:38;;;;;;;;;;;15.10;99.90;;;;;;5067948;28;19912;-84
2024/03/21 06:36:04;;;;;;;;;;;15.80;99.90;;;;;;5071084;28;20007;-83
2024/03/21 06:38:30;;;;;;;;;;;15.50;99.90;;;;;;5081509;28;19915;-83
2024/03/21 06:40:55;;;;;;;;;;;15.10;99.90;;;;;;5078882;28;19931;-84
2024/03/21 06:43:21;;;;;;;;;;;14.60;1.00;;;;;;5083671;28;19915;-85
2024/03/21 06:45:55;;;;;;;;;;;14.20;99.90;;;;;;5087442;28;19978;-84
2024/03/21 06:48:21;;;;;;;;;;;13.90;1.00;;;;;;5082299;28;19919;-85
2024/03/21 06:50:47;;;;;;;;;;;13.70;99.90;;;;;;5077927;28;19912;-84
2024/03/21 06:53:12;;;;;;;;;;;13.60;1.00;;;;;;5083789;28;19916;-86
2024/03/21 06:55:38;;;;;;;;;;;13.50;1.00;;;;;;5085886;28;19918;-83
2024/03/21 06:58:03;;;;;;;;;;;13.40;1.00;;;;;;5078292;28;19985;-85
2024/03/21 07:00:29;;;;;;;;;;;13.30;99.30;;;;;;5075551;28;19920;-83
2024/03/21 07:02:55;;;;;;;;;;;13.20;99.90;;;;;;5067961;28;19945;-84
2024/03/21 07:05:21;;;;;;;;;;;13.10;99.90;;;;;;5072287;28;20001;-84
2024/03/21 07:07:46;;;;;;;;;;;12.80;99.90;;;;;;5076244;28;19967;-85
2024/03/21 07:10:11;;;;;;;;;;;12.70;99.90;;;;;;5076757;28;19968;-84
2024/03/21 07:12:37;;;;;;;;;;;12.60;1.00;;;;;;5070319;28;19909;-84
2024/03/21 07:15:03;;;;;;;;;;;12.50;1.00;;;;;;5075899;28;19986;-84
2024/03/21 07:17:28;;;;;;;;;;;12.50;1.00;;;;;;5072536;28;19913;-84
2024/03/21 07:19:54;;;;;;;;;;;12.40;1.00;;;;;;5075160;28;20329;-84
2024/03/21 07:22:19;;;;;;;;;;;12.30;1.00;;;;;;5072697;28;19951;-84
2024/03/21 07:24:45;;;;;;;;;;;12.30;1.00;;;;;;5070192;28;19975;-84
2024/03/21 07:27:11;;;;;;;;;;;12.30;1.00;;;;;;5070117;28;19920;-83
2024/03/21 07:29:36;;;;;;;;;;;12.30;1.00;;;;;;5071281;28;19921;-84
2024/03/21 07:32:05;;;;;;;;;;;12.30;1.00;;;;;;5074065;28;19959;-85
2024/03/21 07:34:34;;;;;;;;;;;12.30;1.00;;;;;;5070070;28;19995;-84
2024/03/21 07:37:00;;;;;;;;;;;12.20;1.00;;;;;;5073034;28;19920;-83
2024/03/21 07:39:25;;;;;;;;;;;12.20;1.00;;;;;;5071191;28;19912;-85
2024/03/21 07:41:51;;;;;;;;;;;12.20;1.00;;;;;;5074400;28;19909;-83
2024/03/21 07:44:16;;;;;;;;;;;12.30;1.00;;;;;;5061729;28;19916;-85
2024/03/21 07:46:42;;;;;;;;;;;12.30;1.00;;;;;;5063870;28;19916;-84
2024/03/21 07:49:08;;;;;;;;;;;12.30;1.00;;;;;;5054542;28;19966;-84
2024/03/21 07:51:37;;;;;;;;;;;12.20;1.00;;;;;;5058527;28;19913;-85
2024/03/21 07:54:03;;;;;;;;;;;12.30;1.00;;;;;;5076958;28;19912;-85
2024/03/21 07:56:28;;;;;;;;;;;12.30;1.00;;;;;;5061717;28;19955;-84
2024/03/21 07:58:54;;;;;;;;;;;12.30;1.00;;;;;;5075067;28;19917;-84
2024/03/21 08:01:21;;;;;;;;;;;12.40;1.00;;;;;;5078786;28;20405;-85
2024/03/21 08:03:46;;;;;;;;;;;12.30;1.00;;;;;;5074693;28;20011;-85
2024/03/21 08:06:12;;;;;;;;;;;12.40;1.00;;;;;;5076285;28;19967;-84
2024/03/21 08:08:37;;;;;;;;;;;12.40;1.00;;;;;;5075110;28;19913;-87
2024/03/21 08:11:03;;;;;;;;;;;12.50;1.00;;;;;;5079695;28;19912;-84
2024/03/21 08:13:28;;;;;;;;;;;12.50;99.90;;;;;;5075431;28;20368;-86
2024/03/21 08:15:56;;;;;;;;;;;12.60;99.90;;;;;;5076944;28;19916;-85
2024/03/21 08:18:24;;;;;;;;;;;12.90;99.90;;;;;;5075777;28;19955;-85
2024/03/21 08:20:51;;;;;;;;;;;13.10;99.90;;;;;;5070191;28;19920;-85
2024/03/21 08:23:17;;;;;;;;;;;13.20;99.90;;;;;;5069720;28;19913;-85
2024/03/21 08:25:42;;;;;;;;;;;13.40;1.00;;;;;;5065502;28;19924;-85
2024/03/21 08:28:08;;;;;;;;;;;13.50;1.00;;;;;;5076273;28;20413;-85
2024/03/21 08:30:33;;;;;;;;;;;13.60;1.00;;;;;;5068424;28;20595;-85
2024/03/21 08:32:59;;;;;;;;;;;13.60;99.90;;;;;;5077693;28;19919;-86
2024/03/21 08:35:24;;;;;;;;;;;13.70;99.90;;;;;;5072163;28;20289;-84
2024/03/21 08:37:50;;;;;;;;;;;13.60;1.00;;;;;;5068869;28;19912;-85
2024/03/21 08:40:15;;;;;;;;;;;13.60;1.00;;;;;;5078223;28;19947;-85
2024/03/21 08:42:41;;;;;;;;;;;13.50;1.00;;;;;;5065014;28;20279;-86
2024/03/21 08:45:09;;;;;;;;;;;13.40;99.90;;;;;;5067953;28;21462;-87
2024/03/21 08:47:36;;;;;;;;;;;13.40;1.00;;;;;;5066276;28;20324;-85
2024/03/21 08:50:01;;;;;;;;;;;13.40;99.90;;;;;;5077679;28;19909;-85
2024/03/21 08:52:27;;;;;;;;;;;13.40;99.90;;;;;;5069147;28;20015;-85
2024/03/21 08:54:52;;;;;;;;;;;13.30;1.00;;;;;;5071895;28;20307;-85
2024/03/21 08:57:18;;;;;;;;;;;13.30;1.00;;;;;;5072259;28;19909;-85
2024/03/21 08:59:43;;;;;;;;;;;13.20;1.00;;;;;;5071493;28;19916;-85
2024/03/21 09:02:11;;;;;;;;;;;13.20;99.90;;;;;;5069540;28;19912;-86
2024/03/21 09:04:36;;;;;;;;;;;13.20;1.00;;;;;;5074076;28;20007;-86
2024/03/21 09:07:04;;;;;;;;;;;13.20;99.90;;;;;;5059348;28;19958;-85
2024/03/21 09:09:31;;;;;;;;;;;13.40;1.00;;;;;;5069574;28;19920;-85
2024/03/21 09:11:57;;;;;;;;;;;13.70;1.00;;;;;;5066154;28;19920;-84
2024/03/21 09:14:22;;;;;;;;;;;14.20;99.90;;;;;;5068492;28;19916;-86
2024/03/21 09:16:48;;;;;;;;;;;14.60;1.00;;;;;;5057890;28;19912;-85
2024/03/21 09:19:13;;;;;;;;;;;15.10;1.00;;;;;;5073726;28;19920;-85
2024/03/21 09:21:39;;;;;;;;;;;15.60;99.90;;;;;;5081722;28;19952;-85
2024/03/21 09:24:06;;;;;;;;;;;15.70;1.00;;;;;;5074486;28;20011;-85
2024/03/21 09:26:31;;;;;;;;;;;15.70;1.00;;;;;;5073826;28;19913;-86
2024/03/21 09:28:56;;;;;;;;;;;15.60;1.00;;;;;;5072239;28;19966;-86
2024/03/21 09:31:22;;;;;;;;;;;15.50;2.10;;;;;;5074069;28;19909;-85
2024/03/21 09:33:47;;;;;;;;;;;15.60;20.20;;;;;;5076761;28;19912;-86
2024/03/21 09:36:13;;;;;;;;;;;15.60;13.00;;;;;;5077179;28;19934;-84
2024/03/21 09:38:38;;;;;;;;;;;15.80;3.80;;;;;;5079518;28;19916;-85
2024/03/21 09:41:08;;;;;;;;;;;16.00;1.00;;;;;;5075913;28;19965;-85
2024/03/21 09:43:34;;;;;;;;;;;16.40;1.00;;;;;;5076135;28;19935;-85
2024/03/21 09:45:59;;;;;;;;;;;17.30;1.00;;;;;;5065393;28;19913;-86
2024/03/21 09:48:25;;;;;;;;;;;18.00;1.00;;;;;;5063151;28;19908;-85
2024/03/21 09:50:50;;;;;;;;;;;18.30;99.90;;;;;;5076628;28;19913;-85
2024/03/21 09:53:16;;;;;;;;;;;18.50;99.90;;;;;;5074192;28;19923;-85
2024/03/21 09:55:42;;;;;;;;;;;18.50;99.90;;;;;;5076327;28;20018;-85
2024/03/21 09:58:11;;;;;;;;;;;18.30;99.90;;;;;;5076270;28;19909;-85
2024/03/21 10:00:36;;;;;;;;;;;18.10;99.90;;;;;;5075917;28;19908;-85
2024/03/21 10:03:02;;;;;;;;;;;18.90;99.90;;;;;;5075956;28;19908;-86
2024/03/21 10:05:42;;;;;;;;;;;19.40;99.90;;;;;;5064447;28;19967;-85
2024/03/21 10:08:07;;;;;;;;;;;19.20;99.90;;;;;;5069529;28;19912;-84
2024/03/21 10:10:33;;;;;;;;;;;19.00;99.90;;;;;;5074698;28;19918;-84
2024/03/21 10:13:02;;;;;;;;;;;18.90;99.90;;;;;;5074450;28;19912;-85
2024/03/21 10:15:27;;;;;;;;;;;18.90;99.90;;;;;;5067479;28;20404;-85
2024/03/21 10:17:53;;;;;;;;;;;19.00;99.90;;;;;;5067270;28;19950;-86
2024/03/21 10:20:19;;;;;;;;;;;19.80;99.90;;;;;;5075073;28;19916;-85
2024/03/21 10:22:47;;;;;;;;;;;19.90;99.90;;;;;;5066266;28;19920;-86
2024/03/21 10:25:14;;;;;;;;;;;19.80;99.90;;;;;;5074146;28;19924;-86
2024/03/21 10:27:41;;;;;;;;;;;19.90;99.90;;;;;;5074404;28;19920;-86
2024/03/21 10:30:15;;;;;;;;;;;19.80;99.90;;;;;;5074886;28;19908;-86
2024/03/21 10:32:41;;;;;;;;;;;20.20;99.90;;;;;;5082951;28;19908;-86
2024/03/21 10:35:07;;;;;;;;;;;21.30;99.90;;;;;;5074987;28;19955;-83
2024/03/21 10:37:34;;;;;;;;;;;21.40;99.90;;;;;;5075336;28;19912;-82
2024/03/21 10:40:00;;;;;;;;;;;20.90;99.90;;;;;;5069951;28;19913;-83
2024/03/21 10:42:37;;;;;;;;;;;20.30;99.90;;;;;;5073904;28;19909;-83
2024/03/21 10:45:04;;;;;;;;;;;19.80;99.90;;;;;;5073838;28;19952;-84
2024/03/21 10:47:29;;;;;;;;;;;19.20;99.90;;;;;;5074017;28;19928;-84
2024/03/21 10:49:55;;;;;;;;;;;19.00;99.90;;;;;;5078257;28;19909;-83
2024/03/21 10:52:20;;;;;;;;;;;19.80;99.90;;;;;;5073218;28;19912;-84
2024/03/21 10:54:50;;;;;;;;;;;21.50;99.90;;;;;;5077395;28;19916;-84
2024/03/21 10:57:16;;;;;;;;;;;21.30;99.90;;;;;;5083441;28;19909;-84
2024/03/21 10:59:43;;;;;;;;;;;20.80;99.90;;;;;;5076281;28;20263;-85
2024/03/21 11:02:12;;;;;;;;;;;20.50;99.90;;;;;;5071226;28;20397;-85
2024/03/21 11:04:41;;;;;;;;;;;20.10;99.90;;;;;;5070751;28;20298;-84
2024/03/21 11:07:07;;;;;;;;;;;19.70;99.90;;;;;;5063169;28;19936;-84
2024/03/21 11:09:33;;;;;;;;;;;19.30;99.90;;;;;;5063144;28;19912;-84
2024/03/21 11:11:59;;;;;;;;;;;19.00;99.90;;;;;;5067677;28;20278;-84
2024/03/21 11:14:30;;;;;;;;;;;19.10;99.90;;;;;;5063298;28;19912;-84
2024/03/21 11:17:02;;;;;;;;;;;19.00;99.90;;;;;;5070028;28;19924;-84
2024/03/21 11:19:27;;;;;;;;;;;18.70;99.90;;;;;;5068324;28;19908;-84
2024/03/21 11:21:53;;;;;;;;;;;18.50;99.90;;;;;;5072736;28;20420;-83
2024/03/21 11:24:18;;;;;;;;;;;18.30;99.90;;;;;;5063319;28;19913;-84
2024/03/21 11:26:44;;;;;;;;;;;18.20;99.90;;;;;;5071236;28;20298;-84
2024/03/21 11:29:12;;;;;;;;;;;18.70;99.90;;;;;;5073322;28;20000;-82
2024/03/21 11:31:42;;;;;;;;;;;19.30;99.90;;;;;;5074216;28;19920;-84
2024/03/21 11:34:08;;;;;;;;;;;19.40;99.90;;;;;;5074055;28;20336;-85
2024/03/21 11:36:36;;;;;;;;;;;19.10;99.90;;;;;;5070926;28;19917;-85
2024/03/21 11:39:03;;;;;;;;;;;18.90;99.90;;;;;;5067612;28;19967;-85
2024/03/21 11:41:30;;;;;;;;;;;19.20;99.90;;;;;;5060265;28;19958;-85
2024/03/21 11:43:56;;;;;;;;;;;20.20;99.90;;;;;;5071746;28;19916;-85
2024/03/21 11:46:23;;;;;;;;;;;21.50;99.90;;;;;;5071897;28;19958;-85
2024/03/21 11:49:12;;;;;;;;;;;21.90;99.90;;;;;;5073064;28;20504;-85
2024/03/21 11:51:38;;;;;;;;;;;21.50;99.90;;;;;;5072642;28;20041;-85
2024/03/21 11:54:04;;;;;;;;;;;21.10;99.90;;;;;;5074741;22;19978;-86
2024/03/21 11:56:30;;;;;;;;;;;20.70;99.90;;;;;;5045273;28;20003;-84
2024/03/21 11:58:55;;;;;;;;;;;20.30;99.90;;;;;;5043701;28;20634;-86
2024/03/21 12:01:21;;;;;;;;;;;19.90;99.90;;;;;;5047705;28;19909;-86
2024/03/21 12:03:47;;;;;;;;;;;19.50;99.90;;;;;;5052019;28;19909;-86
2024/03/21 12:06:12;;;;;;;;;;;19.40;99.90;;;;;;5051614;28;20393;-84
2024/03/21 12:08:37;;;;;;;;;;;19.50;99.90;;;;;;5048800;28;19959;-85
2024/03/21 12:11:09;;;;;;;;;;;19.30;99.90;;;;;;5053451;28;20437;-86
2024/03/21 12:13:35;;;;;;;;;;;19.10;99.90;;;;;;5053336;28;19920;-86
2024/03/21 12:16:00;;;;;;;;;;;19.00;99.90;;;;;;5054123;28;20419;-88
2024/03/21 12:18:30;;;;;;;;;;;18.80;99.90;;;;;;5053089;28;19913;-87
2024/03/21 12:20:56;;;;;;;;;;;19.30;99.90;;;;;;5052412;28;20393;-89
2024/03/21 12:23:22;;;;;;;;;;;19.50;99.90;;;;;;5051873;28;19908;-88
2024/03/21 12:25:47;;;;;;;;;;;19.40;99.90;;;;;;5041125;28;19917;-89
2024/03/21 12:28:13;;;;;;;;;;;19.10;99.90;;;;;;5050583;28;19908;-88
2024/03/21 12:30:38;;;;;;;;;;;18.90;99.90;;;;;;5052188;28;19909;-89
2024/03/21 12:33:09;;;;;;;;;;;18.60;99.90;;;;;;5051992;28;19920;-89
2024/03/21 12:35:34;;;;;;;;;;;18.40;99.90;;;;;;5051647;28;19913;-87
2024/03/21 12:38:00;;;;;;;;;;;18.40;99.90;;;;;;5053258;28;20344;-88
2024/03/21 12:40:25;;;;;;;;;;;18.60;99.90;;;;;;5053569;28;19913;-89
2024/03/21 12:42:51;;;;;;;;;;;18.50;99.90;;;;;;5045152;28;19909;-88
2024/03/21 12:45:16;;;;;;;;;;;18.40;99.90;;;;;;5051014;28;19920;-89
2024/03/21 12:47:42;;;;;;;;;;;18.40;99.90;;;;;;5043201;28;19909;-87
2024/03/21 12:50:08;;;;;;;;;;;18.80;99.90;;;;;;5040830;28;19935;-89
2024/03/21 12:52:33;;;;;;;;;;;19.60;99.90;;;;;;5040373;28;19917;-86
2024/03/21 12:54:59;;;;;;;;;;;20.30;99.90;;;;;;5053040;28;19913;-88
2024/03/21 12:57:24;;;;;;;;;;;21.00;99.90;;;;;;5045331;28;19991;-89
2024/03/21 12:59:50;;;;;;;;;;;21.80;99.90;;;;;;5052597;28;20011;-89
2024/03/21 13:02:16;;;;;;;;;;;22.00;99.90;;;;;;5052513;28;19916;-90
2024/03/21 13:04:44;;;;;;;;;;;21.70;99.90;;;;;;5049264;28;20263;-88
2024/03/21 13:07:10;;;;;;;;;;;21.30;99.90;;;;;;5049596;28;20413;-90
2024/03/21 13:09:36;;;;;;;;;;;21.30;99.90;;;;;;5050600;28;19916;-89
2024/03/21 13:12:01;;;;;;;;;;;21.50;99.90;;;;;;5033715;28;19909;-89
2024/03/21 13:14:27;;;;;;;;;;;21.50;99.90;;;;;;5042966;28;19913;-88
2024/03/21 13:16:52;;;;;;;;;;;21.50;99.90;;;;;;5043692;28;19912;-89
2024/03/21 13:19:22;;;;;;;;;;;21.50;99.90;;;;;;5049976;28;19956;-87
2024/03/21 13:21:48;;;;;;;;;;;21.40;99.90;;;;;;5049959;28;20548;-90
2024/03/21 13:24:13;;;;;;;;;;;21.50;99.90;;;;;;5040111;28;19917;-89
2024/03/21 13:26:38;;;;;;;;;;;21.40;99.90;;;;;;5038258;28;19917;-90
2024/03/21 13:29:04;;;;;;;;;;;21.30;99.90;;;;;;5043050;28;19913;-88
2024/03/21 13:31:29;;;;;;;;;;;21.30;99.90;;;;;;5040932;28;19914;-87
2024/03/21 13:33:55;;;;;;;;;;;21.30;99.90;;;;;;5044407;28;19912;-89
2024/03/21 13:36:20;;;;;;;;;;;21.30;99.90;;;;;;5041968;28;20373;-89
2024/03/21 13:38:55;;;;;;;;;;;21.30;99.90;;;;;;5044149;28;19917;-88
2024/03/21 13:41:22;;;;;;;;;;;21.20;99.90;;;;;;5048434;28;20591;-89
2024/03/21 13:43:47;;;;;;;;;;;21.10;99.90;;;;;;5042905;28;20403;-89
2024/03/21 13:46:12;;;;;;;;;;;21.00;99.90;;;;;;5036487;28;19923;-89
2024/03/21 13:48:38;;;;;;;;;;;21.00;99.90;;;;;;5047111;28;19912;-89
2024/03/21 13:51:03;;;;;;;;;;;21.10;99.90;;;;;;5045199;28;19967;-89
2024/03/21 13:53:29;;;;;;;;;;;21.00;99.90;;;;;;5042077;28;20020;-89
2024/03/21 13:55:54;;;;;;;;;;;21.00;99.90;;;;;;5036614;28;19919;-88
2024/03/21 13:58:20;;;;;;;;;;;20.80;99.90;;;;;;5040659;28;19916;-89
2024/03/21 14:00:45;;;;;;;;;;;20.50;99.90;;;;;;5044943;28;20353;-87
2024/03/21 14:03:11;;;;;;;;;;;20.30;99.90;;;;;;5043490;28;19959;-87
2024/03/21 14:05:37;;;;;;;;;;;20.10;99.90;;;;;;5047078;28;20011;-89
2024/03/21 14:08:03;;;;;;;;;;;19.90;99.90;;;;;;5044826;28;19913;-89
2024/03/21 14:10:28;;;;;;;;;;;19.70;99.90;;;;;;5058001;28;19913;-88
2024/03/21 14:12:54;;;;;;;;;;;19.50;99.90;;;;;;5047047;28;20576;-88
2024/03/21 14:15:20;;;;;;;;;;;19.40;99.90;;;;;;5049802;28;20538;-87
2024/03/21 14:17:45;;;;;;;;;;;19.40;99.90;;;;;;5049785;28;19913;-89
2024/03/21 14:20:11;;;;;;;;;;;19.30;99.90;;;;;;5051055;28;19921;-89